createdAt,value
2022-12-23T00:08:19.292Z,2.15
2022-12-23T00:18:21.798Z,1.94
2022-12-23T00:28:26.375Z,1.80
2022-12-23T00:38:47.338Z,1.72
2022-12-23T00:49:08.412Z,1.70
2022-12-23T00:59:11.091Z,1.44
2022-12-23T01:09:14.250Z,1.35
2022-12-23T01:19:16.918Z,1.44
2022-12-23T01:29:19.447Z,1.17
2022-12-23T01:39:21.962Z,1.27
2022-12-23T01:49:24.918Z,1.10
2022-12-23T01:59:45.858Z,1.00
2022-12-23T02:09:48.710Z,0.91
2022-12-23T02:19:51.246Z,0.98
2022-12-23T02:30:27.351Z,0.92
2022-12-23T02:40:54.021Z,0.72
2022-12-23T02:50:59.440Z,0.98
2022-12-23T03:01:03.738Z,0.95
2022-12-23T03:11:13.591Z,0.86
2022-12-23T03:21:31.858Z,0.96
2022-12-23T03:31:37.078Z,0.87
2022-12-23T03:41:45.268Z,0.91
2022-12-23T03:52:06.347Z,0.72
2022-12-23T04:02:32.399Z,0.88
2022-12-23T04:12:35.221Z,0.91
2022-12-23T04:22:37.791Z,0.78
2022-12-23T04:32:41.689Z,0.82
2022-12-23T04:42:44.251Z,0.84
2022-12-23T04:52:46.787Z,0.75
2022-12-23T05:02:49.508Z,0.78
2022-12-23T05:12:52.086Z,0.59
2022-12-23T05:22:54.567Z,0.88
2022-12-23T05:32:57.437Z,0.71
2022-12-23T05:42:59.992Z,0.84
2022-12-23T05:53:02.612Z,0.84
2022-12-23T06:03:05.500Z,0.74
2022-12-23T06:13:08.109Z,0.82
2022-12-23T06:23:10.624Z,0.83
2022-12-23T06:33:13.183Z,0.69
2022-12-23T06:43:15.851Z,0.64
2022-12-23T06:53:18.388Z,0.77
2022-12-23T07:03:22.290Z,0.85
2022-12-23T07:13:25.073Z,1.06
2022-12-23T07:23:27.807Z,1.31
2022-12-23T07:33:30.327Z,1.32
2022-12-23T07:43:34.659Z,1.41
2022-12-23T07:53:37.204Z,1.49
2022-12-23T08:03:39.826Z,1.73
2022-12-23T08:13:44.212Z,1.84
2022-12-23T08:23:48.325Z,2.53
2022-12-23T08:33:53.789Z,3.37
2022-12-23T08:43:57.087Z,4.60
2022-12-23T08:54:01.688Z,4.25
2022-12-23T09:04:05.888Z,3.75
2022-12-23T09:14:10.284Z,5.61
2022-12-23T09:24:12.806Z,7.33
2022-12-23T09:34:15.320Z,6.69
2022-12-23T09:44:35.841Z,7.14
2022-12-23T09:54:46.078Z,8.00
2022-12-23T10:04:48.695Z,8.66
2022-12-23T10:14:55.835Z,8.88
2022-12-23T10:25:01.360Z,10.31
2022-12-23T10:35:38.567Z,9.46
2022-12-23T10:45:47.728Z,10.71
2022-12-23T10:55:50.569Z,12.68
2022-12-23T11:05:54.220Z,11.99
2022-12-23T11:16:23.442Z,11.97
2022-12-23T11:26:26.132Z,9.79
2022-12-23T11:36:31.250Z,8.78
2022-12-23T11:46:34.893Z,8.28
2022-12-23T11:56:40.260Z,8.50
2022-12-23T12:06:49.783Z,8.54
2022-12-23T12:17:02.729Z,8.95
2022-12-23T12:27:07.556Z,9.35
2022-12-23T12:37:29.839Z,9.53
2022-12-23T12:48:18.766Z,9.23
2022-12-23T12:58:24.340Z,9.10
2022-12-23T13:08:39.618Z,9.93
2022-12-23T13:18:43.242Z,10.25
2022-12-23T13:28:51.912Z,9.88
2022-12-23T13:39:08.343Z,9.53
2022-12-23T13:49:39.010Z,9.56
2022-12-23T13:59:43.576Z,9.39
2022-12-23T14:09:53.332Z,9.40
2022-12-23T14:20:08.673Z,9.00
2022-12-23T14:30:42.849Z,8.55
2022-12-23T14:41:00.603Z,8.34
2022-12-23T14:51:23.545Z,8.48
2022-12-23T15:01:50.127Z,8.52
2022-12-23T15:11:54.974Z,8.51
2022-12-23T15:22:20.641Z,8.09
2022-12-23T15:32:26.754Z,7.80
2022-12-23T15:42:35.662Z,7.73
2022-12-23T15:52:41.321Z,7.49
2022-12-23T16:03:03.786Z,7.44
2022-12-23T16:13:19.951Z,7.34
2022-12-23T16:23:24.318Z,7.18
2022-12-23T16:33:40.786Z,7.21
2022-12-23T16:43:51.248Z,7.25
2022-12-23T16:53:57.054Z,6.95
2022-12-23T17:03:59.780Z,7.07
2022-12-23T17:14:06.879Z,6.77
2022-12-23T17:24:24.221Z,6.72
2022-12-23T17:34:26.996Z,6.56
2022-12-23T17:44:29.673Z,6.43
2022-12-23T17:54:33.375Z,6.58
2022-12-23T18:04:36.357Z,6.60
2022-12-23T18:14:39.229Z,6.73
2022-12-23T18:24:41.777Z,6.68
2022-12-23T18:34:44.566Z,6.74
2022-12-23T18:44:51.156Z,6.85
2022-12-23T18:54:54.013Z,6.70
2022-12-23T19:04:56.538Z,6.63
2022-12-23T19:14:59.145Z,6.57
2022-12-23T19:25:06.580Z,6.54
2022-12-23T19:35:14.307Z,6.51
2022-12-23T19:45:17.684Z,6.45
2022-12-23T19:55:20.211Z,6.33
2022-12-23T20:05:22.772Z,6.83
2022-12-23T20:15:25.272Z,6.75
2022-12-23T20:25:27.948Z,6.80
2022-12-23T20:35:31.052Z,6.99
2022-12-23T20:45:33.574Z,7.23
2022-12-23T20:55:36.893Z,7.15
2022-12-23T21:05:39.559Z,7.28
2022-12-23T21:15:42.172Z,7.13
2022-12-23T21:25:44.823Z,7.22
2022-12-23T21:35:48.164Z,7.15
2022-12-23T21:46:02.232Z,7.48
2022-12-23T21:56:07.424Z,7.50
2022-12-23T22:06:13.419Z,7.55
2022-12-23T22:16:21.715Z,7.26
2022-12-23T22:26:27.255Z,7.21
2022-12-23T22:36:30.564Z,7.28
2022-12-23T22:46:33.501Z,7.09
2022-12-23T22:56:36.277Z,7.15
2022-12-23T23:06:38.942Z,6.94
2022-12-23T23:16:41.682Z,7.06
2022-12-23T23:26:44.319Z,6.85
2022-12-23T23:36:47.667Z,6.66
2022-12-23T23:46:50.334Z,6.55
2022-12-23T23:56:53.087Z,6.45
